Time;durP1;ratioP1;P1;durP2;ratioP2;P2;SDS_P1;SDS_P2;PMS_P1;PMS_P2;Temp;Humidity;BMP_temperature;BMP_pressure;BME280_temperature;BME280_humidity;BME280_pressure;Samples;Min_cycle;Max_cycle;Signal;HPM_P1;HPM_P2
2022/06/10 00:00:44;;;;;;;7.70;3.57;;;;;;;20.29;57.15;100201.42;1814711;78;21098;-73
2022/06/10 00:03:13;;;;;;;5.63;3.67;;;;;;;20.27;57.23;100201.52;1816645;77;21042;-72
2022/06/10 00:05:44;;;;;;;6.10;3.50;;;;;;;20.21;57.14;100195.52;1815234;77;22470;-72
2022/06/10 00:08:12;;;;;;;8.10;3.50;;;;;;;20.18;57.25;100193.47;1815638;78;21624;-72
2022/06/10 00:10:40;;;;;;;5.67;3.77;;;;;;;20.09;57.88;100188.66;1798004;79;21716;-72
2022/06/10 00:13:07;;;;;;;8.63;4.33;;;;;;;20.05;58.19;100188.53;1819273;77;20968;-72
2022/06/10 00:15:34;;;;;;;6.20;3.40;;;;;;;20.05;58.19;100188.53;1818001;77;21043;-71
2022/06/10 00:18:01;;;;;;;5.33;3.60;;;;;;;19.99;59.02;100184.98;1792419;77;20999;-72
2022/06/10 00:20:30;;;;;;;7.63;4.17;;;;;;;19.99;59.02;100184.98;1789289;78;21022;-72
2022/06/10 00:22:57;;;;;;;5.30;4.10;;;;;;;19.97;59.06;100191.28;1816351;77;21063;-72
2022/06/10 00:25:23;;;;;;;5.47;3.43;;;;;;;19.93;59.33;100188.44;1817210;77;21046;-73
2022/06/10 00:27:51;;;;;;;6.53;3.50;;;;;;;19.91;59.64;100193.41;1818083;78;21715;-73
2022/06/10 00:30:21;;;;;;;8.30;3.70;;;;;;;19.86;60.11;100197.09;1819579;78;21042;-73
2022/06/10 00:32:49;;;;;;;6.72;4.03;;;;;;;19.86;60.11;100197.09;1819289;78;21540;-72
2022/06/10 00:35:16;;;;;;;5.17;3.70;;;;;;;19.84;60.27;100195.28;1817071;78;21268;-72
2022/06/10 00:37:42;;;;;;;5.93;3.57;;;;;;;19.80;60.28;100194.33;1817267;78;21074;-72
2022/06/10 00:40:17;;;;;;;4.90;3.43;;;;;;;19.75;59.99;100193.74;1817425;77;21711;-72
2022/06/10 00:42:43;;;;;;;5.23;4.00;;;;;;;19.75;59.99;100193.74;1816141;78;21038;-71
2022/06/10 00:45:52;;;;;;;6.13;3.20;;;;;;;19.72;59.72;100195.75;1819065;77;21687;-72
2022/06/10 00:48:30;;;;;;;5.10;3.40;;;;;;;19.71;59.64;100200.91;1782672;79;22731;-72
2022/06/10 00:50:58;;;;;;;4.33;3.40;;;;;;;19.66;59.83;100199.20;1795001;78;20979;-72
2022/06/10 00:53:32;;;;;;;6.57;3.03;;;;;;;19.63;60.16;100199.28;1795649;78;21672;-71
2022/06/10 00:55:59;;;;;;;5.27;3.50;;;;;;;19.60;60.29;100201.82;1795746;78;21743;-72
2022/06/10 00:58:49;;;;;;;6.27;3.43;;;;;;;19.58;60.34;100208.14;1796355;79;21701;-73
2022/06/10 01:01:16;;;;;;;5.40;3.30;;;;;;;19.53;60.38;100206.95;1794822;79;21665;-72
2022/06/10 01:03:43;;;;;;;4.60;3.20;;;;;;;19.48;60.22;100207.13;1797908;79;21673;-73
2022/06/10 01:06:10;;;;;;;6.23;3.20;;;;;;;19.44;60.14;100205.06;1772937;78;21688;-72
2022/06/10 01:08:39;;;;;;;4.30;3.50;;;;;;;19.41;60.17;100208.45;1796414;79;21773;-72
2022/06/10 01:11:36;;;;;;;6.33;3.50;;;;;;;19.39;60.10;100207.97;1796948;78;21716;-72
2022/06/10 01:14:46;;;;;;;4.50;3.27;;;;;;;19.36;60.27;100210.53;1814999;77;21774;-72
2022/06/10 01:17:30;;;;;;;6.03;3.47;;;;;;;19.33;60.65;100211.17;1815169;78;21789;-72
2022/06/10 01:20:43;;;;;;;5.93;3.67;;;;;;;19.29;61.12;100211.59;1817051;78;21739;-71
2022/06/10 01:23:33;;;;;;;5.70;3.67;;;;;;;19.25;61.39;100201.97;1797175;79;22121;-73
2022/06/10 01:29:50;;;;;;;3.70;3.10;;;;;;;19.16;61.73;100213.38;1781422;79;22060;-73
2022/06/10 01:32:45;;;;;;;4.73;3.20;;;;;;;19.10;61.87;100212.75;1815919;78;21793;-71
2022/06/10 01:35:21;;;;;;;5.33;3.40;;;;;;;19.06;61.63;100227.27;1793925;78;21602;-72
2022/06/10 01:38:15;;;;;;;6.67;3.83;;;;;;;19.02;61.90;100227.64;1797376;78;21663;-72
2022/06/10 01:41:25;;;;;;;5.47;3.67;;;;;;;18.97;61.98;100225.35;1776554;79;21682;-73
2022/06/10 01:44:08;;;;;;;5.03;3.67;;;;;;;18.92;62.10;100226.06;1732005;81;21746;-72
2022/06/10 01:46:37;;;;;;;4.90;3.70;;;;;;;18.86;62.64;100224.67;1695909;81;21794;-72
2022/06/10 01:49:18;;;;;;;6.43;3.87;;;;;;;18.81;62.58;100238.34;1741551;79;21732;-73
2022/06/10 01:52:02;;;;;;;6.93;3.60;;;;;;;18.81;62.58;100238.34;1795325;79;21686;-73
2022/06/10 01:54:41;;;;;;;7.20;3.87;;;;;;;18.78;62.82;100241.69;1796369;79;21662;-72
2022/06/10 01:57:12;;;;;;;5.03;3.57;;;;;;;18.71;62.75;100241.58;1796203;78;21798;-72
2022/06/10 01:59:44;;;;;;;4.97;3.65;;;;;;;18.69;63.07;100243.01;1796372;79;21733;-72
2022/06/10 02:02:18;;;;;;;5.03;3.77;;;;;;;18.66;63.41;100245.02;1796463;78;21120;-71
2022/06/10 02:04:51;;;;;;;5.37;3.80;;;;;;;18.61;63.71;100249.23;1783237;79;21722;-72
2022/06/10 02:07:26;;;;;;;4.78;3.92;;;;;;;18.57;64.00;100244.22;1780294;79;22153;-72
2022/06/10 02:10:09;;;;;;;7.00;4.13;;;;;;;18.55;63.99;100245.09;1796951;79;21425;-71
2022/06/10 02:12:40;;;;;;;6.67;4.33;;;;;;;18.51;65.27;100239.52;1779742;79;21745;-71
2022/06/10 02:15:17;;;;;;;;;;;;;;;18.51;65.27;100239.52;1797905;78;21731;-71
2022/06/10 02:17:49;;;;;;;6.73;4.17;;;;;;;18.51;65.67;100237.61;1796993;78;20234;-71
2022/06/10 02:20:20;;;;;;;8.27;4.57;;;;;;;18.54;66.04;100247.56;1783044;79;21724;-72
2022/06/10 02:22:47;;;;;;;6.50;4.03;;;;;;;18.57;66.12;100241.52;1782672;79;21765;-74
2022/06/10 02:25:26;;;;;;;5.77;3.97;;;;;;;18.63;66.43;100247.02;1797009;79;21021;-71
2022/06/10 02:27:59;;;;;;;4.05;3.37;;;;;;;18.63;66.43;100247.02;1796182;79;21626;-71
2022/06/10 02:30:31;;;;;;;7.10;4.70;;;;;;;18.65;66.50;100244.77;1797178;78;21057;-72
2022/06/10 02:32:57;;;;;;;7.47;4.15;;;;;;;18.63;66.66;100244.31;1817571;78;21035;-72
2022/06/10 02:35:27;;;;;;;6.20;4.37;;;;;;;18.66;66.80;100249.09;1817130;77;21188;-72
2022/06/10 02:38:17;;;;;;;6.27;4.00;;;;;;;18.66;66.80;100249.09;1813651;77;22075;-72
2022/06/10 02:40:59;;;;;;;6.17;3.90;;;;;;;18.67;66.46;100252.02;1813921;77;21724;-73
2022/06/10 02:43:37;;;;;;;8.37;4.00;;;;;;;18.70;65.46;100247.33;1814248;77;21698;-72
2022/06/10 02:46:09;;;;;;;5.40;3.87;;;;;;;18.72;64.61;100251.34;1814345;77;21750;-72
2022/06/10 02:48:44;;;;;;;5.17;4.10;;;;;;;18.78;64.47;100254.66;1815233;77;21743;-71
2022/06/10 02:51:13;;;;;;;6.37;4.30;;;;;;;18.83;64.62;100251.80;1815460;77;21717;-72
2022/06/10 02:53:39;;;;;;;7.43;4.03;;;;;;;18.88;64.52;100263.02;1816391;78;21715;-72
2022/06/10 02:56:24;;;;;;;6.90;4.10;;;;;;;18.90;64.34;100253.47;1816249;77;21704;-72
2022/06/10 03:02:17;;;;;;;9.00;4.10;;;;;;;19.00;64.16;100266.44;1815817;78;21648;-72
2022/06/10 03:05:01;;;;;;;7.30;4.07;;;;;;;19.04;64.34;100267.37;1813989;77;21711;-72
2022/06/10 03:07:58;;;;;;;5.60;3.90;;;;;;;19.10;64.10;100268.25;1795612;78;21706;-73
2022/06/10 03:10:40;;;;;;;7.23;3.83;;;;;;;19.15;63.58;100266.73;1812889;78;21694;-72
2022/06/10 03:13:23;;;;;;;8.00;4.20;;;;;;;19.22;62.94;100274.37;1813757;77;21758;-72
2022/06/10 03:15:58;;;;;;;6.95;3.95;;;;;;;19.29;62.10;100273.31;1794445;79;21615;-72
2022/06/10 03:18:46;;;;;;;5.67;3.70;;;;;;;19.34;61.29;100269.06;1796276;78;21035;-71
2022/06/10 03:21:27;;;;;;;4.67;3.53;;;;;;;19.37;60.55;100271.13;1796208;79;21667;-72
2022/06/10 03:24:20;;;;;;;4.92;3.77;;;;;;;19.44;60.15;100275.48;1791381;79;29052;-72
2022/06/10 03:26:59;;;;;;;6.70;3.63;;;;;;;19.52;59.74;100273.89;1796664;79;20951;-71
2022/06/10 03:29:37;;;;;;;5.57;3.47;;;;;;;19.71;58.78;100268.13;1784133;79;21568;-72
2022/06/10 03:32:15;;;;;;;6.13;3.70;;;;;;;19.71;58.78;100268.13;1816511;77;21047;-72
2022/06/10 03:34:50;;;;;;;4.87;3.67;;;;;;;19.81;58.78;100259.62;1783882;79;21144;-73
2022/06/10 03:37:18;;;;;;;5.50;3.50;;;;;;;19.93;58.50;100265.69;1769813;78;20995;-73
2022/06/10 03:39:56;;;;;;;5.80;3.40;;;;;;;20.02;58.16;100265.66;1797079;79;21030;-73
2022/06/10 03:42:24;;;;;;;5.63;3.57;;;;;;;20.12;57.87;100265.27;1793767;79;21212;-72
2022/06/10 03:44:55;;;;;;;6.90;3.90;;;;;;;20.19;57.38;100268.26;1797174;78;21026;-72
2022/06/10 03:47:28;;;;;;;10.83;4.40;;;;;;;20.26;57.34;100269.88;1783349;79;21038;-73
2022/06/10 03:50:06;;;;;;;6.00;3.93;;;;;;;20.35;57.16;100271.98;1782702;79;21486;-73
2022/06/10 03:52:36;;;;;;;7.30;4.27;;;;;;;20.43;56.91;100267.61;1797390;79;20987;-73
2022/06/10 03:55:07;;;;;;;7.00;3.92;;;;;;;20.52;56.35;100277.87;1797806;79;21011;-73
2022/06/10 03:57:34;;;;;;;7.13;4.40;;;;;;;20.60;56.37;100265.39;1797530;78;21073;-73
2022/06/10 04:00:01;;;;;;;6.80;4.10;;;;;;;20.69;56.42;100266.66;1802111;78;21155;-73
2022/06/10 04:02:27;;;;;;;6.33;4.37;;;;;;;20.79;56.28;100271.11;1805132;78;21829;-73
2022/06/10 04:04:54;;;;;;;5.33;3.90;;;;;;;20.89;56.05;100269.91;1802080;78;21101;-73
2022/06/10 04:07:20;;;;;;;6.17;4.10;;;;;;;20.98;55.49;100269.84;1795638;79;21139;-73
2022/06/10 04:09:47;;;;;;;5.47;3.90;;;;;;;21.07;55.32;100265.13;1797237;79;20994;-73
2022/06/10 04:12:15;;;;;;;5.97;4.63;;;;;;;21.14;55.25;100273.52;1797317;78;21118;-73
2022/06/10 04:14:43;;;;;;;7.80;4.30;;;;;;;21.22;55.07;100276.73;1794006;79;21077;-73
2022/06/10 04:17:11;;;;;;;7.03;4.57;;;;;;;21.29;55.05;100273.47;1796674;79;21081;-73
2022/06/10 04:19:38;;;;;;;5.93;4.13;;;;;;;21.37;54.87;100275.88;1796044;78;21585;-73
2022/06/10 04:22:04;;;;;;;6.10;4.60;;;;;;;21.43;55.04;100280.77;1795806;79;21046;-72
2022/06/10 04:24:31;;;;;;;7.23;4.60;;;;;;;21.51;54.72;100283.94;1816310;77;21003;-73
2022/06/10 04:26:58;;;;;;;8.50;5.00;;;;;;;21.57;54.58;100284.52;1784710;78;20995;-72
2022/06/10 04:29:24;;;;;;;7.30;5.00;;;;;;;21.58;54.79;100282.59;1812472;77;21070;-72
2022/06/10 04:31:52;;;;;;;8.03;4.87;;;;;;;21.62;54.85;100284.31;1796338;79;21253;-73
2022/06/10 04:34:18;;;;;;;9.40;5.30;;;;;;;21.74;54.90;100291.67;1816999;77;21070;-73
2022/06/10 04:36:45;;;;;;;7.67;5.03;;;;;;;21.88;54.87;100288.62;1811337;77;20983;-73
2022/06/10 04:39:12;;;;;;;7.17;5.10;;;;;;;22.00;54.56;100283.19;1816412;77;21101;-75
2022/06/10 04:41:39;;;;;;;8.90;5.77;;;;;;;22.15;54.30;100285.26;1816985;77;21516;-74
2022/06/10 04:44:06;;;;;;;7.77;6.10;;;;;;;22.29;54.35;100286.83;1810112;77;21529;-74
2022/06/10 04:46:37;;;;;;;8.23;5.83;;;;;;;22.40;53.81;100290.09;1816027;77;21089;-73
2022/06/10 04:49:05;;;;;;;7.83;6.43;;;;;;;22.54;53.38;100289.73;1809676;77;21461;-73
2022/06/10 04:51:34;;;;;;;9.07;6.63;;;;;;;22.67;53.29;100294.55;1816682;77;21023;-74
2022/06/10 04:54:01;;;;;;;8.37;6.80;;;;;;;22.82;53.12;100293.05;1817184;78;21137;-72
2022/06/10 04:56:27;;;;;;;10.33;5.90;;;;;;;22.99;52.55;100306.40;1815840;78;21776;-72
2022/06/10 04:58:54;;;;;;;9.73;6.50;;;;;;;23.13;52.49;100306.81;1819136;77;21039;-73
2022/06/10 05:01:20;;;;;;;9.93;7.27;;;;;;;23.30;52.66;100313.09;1819727;77;20994;-74
2022/06/10 05:03:47;;;;;;;8.43;6.90;;;;;;;23.44;52.22;100313.45;1817057;78;20995;-72
2022/06/10 05:06:14;;;;;;;9.90;7.77;;;;;;;23.10;52.74;100312.13;1814377;78;21156;-73
2022/06/10 05:08:43;;;;;;;9.93;7.87;;;;;;;23.14;52.86;100317.92;1817885;78;21244;-73
2022/06/10 05:11:09;;;;;;;9.80;7.70;;;;;;;23.28;52.47;100315.36;1818401;78;20939;-73
2022/06/10 05:13:36;;;;;;;9.47;7.97;;;;;;;23.38;52.41;100317.00;1817939;78;21450;-73
2022/06/10 05:16:04;;;;;;;11.60;8.40;;;;;;;23.47;51.88;100319.57;1817841;77;21031;-74
2022/06/10 05:18:31;;;;;;;10.23;8.03;;;;;;;23.67;51.49;100319.69;1817693;78;21042;-74
2022/06/10 05:20:58;;;;;;;9.13;8.00;;;;;;;23.84;51.45;100320.72;1817744;78;22208;-74
2022/06/10 05:23:25;;;;;;;10.63;8.30;;;;;;;23.80;51.27;100324.73;1816910;78;21014;-73
2022/06/10 05:25:52;;;;;;;12.20;8.27;;;;;;;23.88;51.11;100318.29;1819074;78;21042;-74
2022/06/10 05:28:20;;;;;;;10.10;8.47;;;;;;;23.99;50.09;100322.66;1797680;78;21044;-73
2022/06/10 05:30:47;;;;;;;9.70;8.40;;;;;;;24.04;49.92;100326.47;1818642;78;20951;-73
2022/06/10 05:33:14;;;;;;;10.93;8.93;;;;;;;24.24;49.87;100326.53;1817578;78;21852;-73
2022/06/10 05:35:42;;;;;;;12.23;8.83;;;;;;;24.40;49.81;100334.12;1814018;78;21035;-74
2022/06/10 05:38:09;;;;;;;10.70;9.27;;;;;;;24.39;50.27;100329.03;1817603;77;20967;-72
2022/06/10 05:40:36;;;;;;;11.93;9.63;;;;;;;24.59;49.28;100329.89;1819517;78;20983;-73
2022/06/10 05:43:04;;;;;;;12.30;9.77;;;;;;;24.63;48.94;100333.48;1817280;78;21014;-72
2022/06/10 05:45:31;;;;;;;12.30;10.23;;;;;;;24.75;49.00;100337.45;1817657;78;21220;-73
2022/06/10 05:48:01;;;;;;;13.97;10.53;;;;;;;24.89;48.55;100335.59;1817415;78;20971;-73
2022/06/10 05:50:40;;;;;;;11.63;10.47;;;;;;;25.04;48.08;100338.26;1791321;79;21071;-73
2022/06/10 05:53:10;;;;;;;14.10;11.50;;;;;;;25.15;47.79;100341.80;1819992;77;21481;-72
2022/06/10 05:55:44;;;;;;;18.47;11.67;;;;;;;25.26;47.36;100338.11;1798049;79;20995;-74
2022/06/10 05:58:12;;;;;;;16.13;11.57;;;;;;;25.37;46.70;100338.33;1797799;79;21392;-72
2022/06/10 06:00:38;;;;;;;13.50;11.50;;;;;;;25.48;45.83;100348.87;1818849;77;21535;-72
2022/06/10 06:03:05;;;;;;;14.50;11.93;;;;;;;25.54;45.37;100351.33;1795080;79;21167;-72
2022/06/10 06:05:32;;;;;;;14.77;11.93;;;;;;;25.59;45.27;100351.80;1793717;79;20983;-73
2022/06/10 06:08:00;;;;;;;14.53;11.83;;;;;;;25.66;45.07;100358.75;1795185;78;21025;-75
2022/06/10 06:10:27;;;;;;;17.13;11.97;;;;;;;25.75;44.54;100353.05;1795104;79;21620;-75
2022/06/10 06:12:55;;;;;;;15.10;11.87;;;;;;;25.84;44.20;100353.64;1817269;78;21097;-74
2022/06/10 06:15:24;;;;;;;14.17;11.27;;;;;;;25.91;43.99;100353.75;1817606;78;21548;-74
2022/06/10 06:17:51;;;;;;;15.70;11.60;;;;;;;26.07;43.54;100354.20;1814421;77;21121;-75
2022/06/10 06:20:20;;;;;;;13.13;11.70;;;;;;;26.20;43.24;100352.27;1817948;77;21038;-74
2022/06/10 06:22:47;;;;;;;14.70;11.53;;;;;;;26.38;42.95;100352.52;1794909;78;21824;-75
2022/06/10 06:25:17;;;;;;;14.83;11.20;;;;;;;26.54;42.31;100353.75;1796592;79;20999;-74
2022/06/10 06:27:44;;;;;;;16.43;11.60;;;;;;;26.68;42.29;100351.78;1780055;79;21044;-74
2022/06/10 06:30:30;;;;;;;16.23;11.67;;;;;;;26.84;42.39;100359.23;1779427;79;21547;-74
2022/06/10 06:32:59;;;;;;;14.07;10.60;;;;;;;26.96;42.33;100355.48;1796244;78;21422;-74
2022/06/10 06:35:26;;;;;;;11.93;10.40;;;;;;;27.08;40.63;100353.88;1796680;78;21212;-74
2022/06/10 06:37:53;;;;;;;12.97;10.40;;;;;;;27.18;39.88;100357.12;1796331;79;21072;-74
2022/06/10 06:40:19;;;;;;;15.27;9.90;;;;;;;27.28;39.66;100357.84;1797093;78;21011;-75
2022/06/10 06:42:47;;;;;;;14.07;10.13;;;;;;;27.40;38.81;100353.45;1801097;78;21412;-75
2022/06/10 06:45:15;;;;;;;11.33;9.37;;;;;;;27.51;38.30;100350.81;1799871;78;21041;-74
2022/06/10 06:47:43;;;;;;;17.67;10.83;;;;;;;27.59;37.94;100355.22;1782836;79;21627;-73
2022/06/10 06:50:10;;;;;;;13.93;9.90;;;;;;;27.64;37.62;100359.00;1796628;78;21085;-74
2022/06/10 06:52:37;;;;;;;11.90;9.80;;;;;;;27.68;37.27;100354.91;1791271;79;21002;-74
2022/06/10 06:55:05;;;;;;;15.33;10.60;;;;;;;27.77;37.75;100360.33;1785651;79;21463;-73
2022/06/10 06:57:32;;;;;;;13.07;10.07;;;;;;;27.91;37.56;100358.28;1812109;78;21504;-73
2022/06/10 07:00:06;;;;;;;20.30;12.27;;;;;;;28.03;37.21;100360.71;1813791;78;22142;-74
2022/06/10 07:02:27;;;;;;;14.20;10.67;;;;;;;28.16;37.26;100362.58;1816584;78;21542;-74
2022/06/10 07:04:54;;;;;;;12.87;10.00;;;;;;;28.25;36.69;100355.39;1817716;78;21112;-74
2022/06/10 07:07:21;;;;;;;12.23;9.47;;;;;;;28.34;36.47;100350.95;1817446;78;21003;-74
2022/06/10 07:09:48;;;;;;;14.17;10.27;;;;;;;28.47;36.62;100357.73;1820076;78;20968;-75
2022/06/10 07:12:16;;;;;;;15.87;10.77;;;;;;;28.62;36.14;100353.87;1817071;78;20948;-73
2022/06/10 07:14:44;;;;;;;13.53;10.57;;;;;;;28.74;35.83;100357.67;1812262;78;21486;-73
2022/06/10 07:17:11;;;;;;;12.40;9.27;;;;;;;28.82;35.32;100357.11;1816514;78;21019;-73
2022/06/10 07:19:41;;;;;;;16.67;10.70;;;;;;;28.91;35.81;100358.92;1797988;79;21053;-73
2022/06/10 07:22:08;;;;;;;13.63;9.73;;;;;;;29.03;35.25;100355.08;1759363;78;21077;-73
2022/06/10 07:24:36;;;;;;;12.40;10.57;;;;;;;29.17;35.18;100357.08;1785083;79;21660;-75
2022/06/10 07:27:27;;;;;;;11.83;10.43;;;;;;;29.28;35.10;100356.52;1782602;79;21053;-73
2022/06/10 07:29:59;;;;;;;17.07;11.63;;;;;;;29.38;34.55;100358.50;1794433;79;21030;-73
2022/06/10 07:32:25;;;;;;;14.43;10.57;;;;;;;29.42;34.54;100358.53;1801418;78;20956;-74
2022/06/10 07:34:52;;;;;;;16.97;10.40;;;;;;;29.46;34.32;100355.19;1798997;79;20995;-74
2022/06/10 07:37:18;;;;;;;12.17;9.90;;;;;;;29.53;34.81;100355.20;1796461;78;21128;-75
2022/06/10 07:39:45;;;;;;;13.30;10.50;;;;;;;29.61;33.62;100356.80;1788839;78;21494;-75
2022/06/10 07:42:12;;;;;;;12.40;10.00;;;;;;;29.73;33.17;100365.28;1782482;79;21458;-75
2022/06/10 07:44:40;;;;;;;14.80;10.23;;;;;;;29.80;31.87;100363.12;1787425;79;20975;-77
2022/06/10 07:47:09;;;;;;;13.00;9.73;;;;;;;29.82;31.21;100369.03;1795037;79;21101;-74
2022/06/10 07:49:36;;;;;;;12.93;9.80;;;;;;;29.82;31.59;100366.28;1797540;78;21857;-74
2022/06/10 07:52:05;;;;;;;14.23;9.70;;;;;;;29.98;30.16;100361.73;1797563;79;22414;-74
2022/06/10 07:54:34;;;;;;;11.10;9.13;;;;;;;29.95;29.96;100363.92;1797413;79;20986;-74
2022/06/10 07:57:05;;;;;;;14.17;9.93;;;;;;;29.95;29.62;100361.95;1798160;79;21086;-74
2022/06/10 07:59:33;;;;;;;13.23;10.30;;;;;;;29.73;30.09;100368.63;1798684;79;21021;-73
2022/06/10 08:02:01;;;;;;;18.03;12.23;;;;;;;29.81;30.32;100366.06;1797710;79;21061;-75
2022/06/10 08:04:29;;;;;;;12.20;10.50;;;;;;;29.75;30.71;100366.28;1796546;79;21097;-74
2022/06/10 08:06:56;;;;;;;12.03;9.87;;;;;;;29.72;30.61;100371.19;1785547;79;21031;-73
2022/06/10 08:09:23;;;;;;;12.17;10.87;;;;;;;29.70;30.54;100371.56;1779837;79;21015;-75
2022/06/10 08:11:51;;;;;;;12.90;11.00;;;;;;;29.68;30.83;100367.84;1799350;79;21011;-75
2022/06/10 08:14:18;;;;;;;14.13;10.00;;;;;;;29.75;31.17;100373.16;1785408;79;22380;-75
2022/06/10 08:16:46;;;;;;;11.57;10.30;;;;;;;29.84;30.89;100367.44;1819270;78;21739;-74
2022/06/10 08:19:13;;;;;;;15.90;10.97;;;;;;;29.79;30.68;100365.09;1797819;79;22379;-74
2022/06/10 08:24:26;;;;;;;14.40;12.17;;;;;;;30.03;30.69;100366.86;1786811;79;21192;-75
2022/06/10 08:26:53;;;;;;;14.47;11.87;;;;;;;30.14;30.28;100373.13;1817859;79;22164;-75
2022/06/10 08:29:21;;;;;;;13.43;11.90;;;;;;;30.19;30.36;100372.78;1796789;79;21027;-74
2022/06/10 08:31:48;;;;;;;12.23;10.97;;;;;;;30.23;30.05;100370.02;1797709;79;21022;-75
2022/06/10 08:34:15;;;;;;;14.13;11.53;;;;;;;30.30;30.10;100361.73;1794898;79;21010;-75
2022/06/10 08:36:42;;;;;;;14.17;11.20;;;;;;;30.45;30.55;100366.05;1792065;79;20994;-74
2022/06/10 08:39:10;;;;;;;13.70;11.00;;;;;;;30.58;30.19;100366.41;1794786;79;21545;-74
2022/06/10 08:41:51;;;;;;;11.53;9.20;;;;;;;30.67;29.73;100358.52;1795014;79;21010;-76
2022/06/10 08:44:47;;;;;;;;;;;;;;;30.76;29.18;100364.40;1781549;79;21050;-77
2022/06/10 08:47:34;;;;;;;9.80;8.50;;;;;;;30.83;29.13;100364.39;1794044;79;20136;-75
2022/06/10 08:50:24;;;;;;;9.13;7.97;;;;;;;30.83;28.81;100370.48;1796266;79;21125;-74
2022/06/10 08:53:10;;;;;;;11.70;8.77;;;;;;;30.80;27.36;100357.48;1823623;77;21539;-77
2022/06/10 08:56:17;;;;;;;14.47;11.43;;;;;;;30.51;29.00;100369.19;1795473;78;21422;-76
2022/06/10 08:59:19;;;;;;;15.03;11.50;;;;;;;30.57;29.83;100373.91;1771433;79;21033;-75
2022/06/10 09:02:08;;;;;;;14.97;11.87;;;;;;;30.78;29.86;100368.15;1819634;77;21125;-75
2022/06/10 09:04:53;;;;;;;12.43;10.90;;;;;;;31.11;30.20;100373.72;1797893;79;20939;-75
2022/06/10 09:07:35;;;;;;;13.60;11.12;;;;;;;31.43;29.16;100370.82;1798210;79;21038;-76
2022/06/10 09:10:03;;;;;;;11.43;10.10;;;;;;;31.69;28.44;100367.30;1798479;79;21007;-74
2022/06/10 09:12:51;;;;;;;10.82;8.00;;;;;;;31.90;28.02;100371.89;1818917;78;20978;-75
2022/06/10 09:15:20;;;;;;;9.95;7.35;;;;;;;31.96;25.06;100368.28;1779817;79;21105;-76
2022/06/10 09:17:52;;;;;;;8.05;6.85;;;;;;;31.90;25.54;100371.89;1799164;78;21042;-76
2022/06/10 09:20:32;;;;;;;8.93;6.90;;;;;;;31.92;26.41;100372.25;1799209;79;21694;-73
2022/06/10 09:23:22;;;;;;;7.33;6.55;;;;;;;31.84;26.09;100375.64;1777295;79;20998;-76
2022/06/10 09:25:49;;;;;;;9.58;7.17;;;;;;;31.74;25.96;100375.13;1786518;79;21598;-77
2022/06/10 09:28:15;;;;;;;9.05;7.75;;;;;;;31.49;26.42;100378.87;1788814;78;21026;-76
2022/06/10 09:31:01;;;;;;;10.80;7.60;;;;;;;31.31;26.05;100376.17;1787128;80;21033;-76
2022/06/10 09:33:40;;;;;;;8.88;7.53;;;;;;;31.29;26.16;100376.37;1787155;80;21205;-75
2022/06/10 09:36:40;;;;;;;9.05;7.60;;;;;;;31.40;25.55;100374.38;1812148;78;21042;-75
2022/06/10 09:43:14;;;;;;;9.60;7.50;;;;;;;31.84;25.96;100365.98;1819420;78;21026;-75
2022/06/10 09:46:07;;;;;;;8.15;6.80;;;;;;;32.42;23.99;100368.47;1813150;78;21028;-74
2022/06/10 09:48:39;;;;;;;9.13;7.80;;;;;;;32.60;24.00;100362.73;1815529;78;21201;-76
2022/06/10 09:51:26;;;;;;;9.50;8.15;;;;;;;32.66;22.63;100363.07;1813790;78;21077;-76
2022/06/10 09:54:28;;;;;;;15.18;9.40;;;;;;;32.63;23.62;100374.95;1769003;78;22128;-77
2022/06/10 09:57:36;;;;;;;12.25;10.05;;;;;;;32.64;24.23;100372.37;1776166;78;21183;-76
2022/06/10 10:00:18;;;;;;;12.18;9.93;;;;;;;32.63;23.83;100372.97;1819079;78;21092;-76
2022/06/10 10:03:10;;;;;;;12.18;10.45;;;;;;;32.63;23.49;100380.48;1816811;78;21236;-76
2022/06/10 10:06:02;;;;;;;11.80;9.95;;;;;;;32.71;23.44;100379.22;1818416;78;21071;-77
2022/06/10 10:09:25;;;;;;;12.98;10.28;;;;;;;32.81;23.00;100376.93;1817463;78;21045;-76
2022/06/10 10:12:12;;;;;;;13.00;10.53;;;;;;;32.91;23.00;100375.23;1817060;78;21006;-75
2022/06/10 10:15:02;;;;;;;14.85;11.48;;;;;;;33.05;22.59;100371.52;1819239;78;20987;-76
2022/06/10 10:17:52;;;;;;;14.95;11.78;;;;;;;33.16;22.35;100370.16;1819588;78;22173;-76
2022/06/10 10:20:31;;;;;;;13.95;11.12;;;;;;;33.15;22.19;100371.38;1813700;78;21027;-77
2022/06/10 10:23:30;;;;;;;13.62;11.03;;;;;;;33.20;21.99;100373.48;1818119;78;21034;-74
2022/06/10 10:25:57;;;;;;;13.98;11.10;;;;;;;33.12;22.32;100370.04;1738708;82;21041;-75
2022/06/10 10:28:30;;;;;;;13.28;10.93;;;;;;;33.14;22.28;100376.73;1738793;82;21095;-77
2022/06/10 10:31:24;;;;;;;13.55;11.85;;;;;;;33.18;22.36;100374.52;1771795;78;21137;-76
2022/06/10 10:33:51;;;;;;;15.18;11.97;;;;;;;33.23;22.04;100383.12;1817721;78;21054;-76
2022/06/10 10:36:36;;;;;;;12.70;11.20;;;;;;;33.28;22.03;100377.13;1816456;78;21069;-75
2022/06/10 10:39:38;;;;;;;13.72;11.93;;;;;;;33.36;22.18;100375.81;1815779;78;21019;-75
2022/06/10 10:42:23;;;;;;;15.05;12.03;;;;;;;33.38;21.36;100370.66;1817637;78;21043;-77
2022/06/10 10:45:18;;;;;;;13.78;12.15;;;;;;;33.23;21.62;100373.44;1817199;78;21186;-76
2022/06/10 10:48:01;;;;;;;15.13;12.20;;;;;;;33.23;21.78;100372.05;1816619;78;21142;-76
2022/06/10 10:50:34;;;;;;;14.20;11.90;;;;;;;33.28;21.60;100377.73;1813647;78;21643;-77
2022/06/10 10:53:25;;;;;;;14.03;12.43;;;;;;;33.27;20.71;100371.42;1816412;78;21050;-76
2022/06/10 10:55:56;;;;;;;14.50;12.63;;;;;;;33.10;21.09;100366.89;1818364;78;21043;-75
2022/06/10 10:58:31;;;;;;;13.45;12.05;;;;;;;33.07;21.53;100369.10;1814517;78;22689;-74
2022/06/10 11:01:08;;;;;;;17.35;13.45;;;;;;;33.04;21.44;100363.02;1818348;78;21403;-76
2022/06/10 11:03:48;;;;;;;15.15;13.03;;;;;;;32.91;22.24;100364.94;1819556;78;21620;-75
2022/06/10 11:06:25;;;;;;;;;;;;;;;32.89;22.12;100359.03;1774845;79;20995;-76
2022/06/10 11:09:23;;;;;;;15.68;13.75;;;;;;;32.96;21.99;100355.99;1797930;78;20171;-77
2022/06/10 11:11:51;;;;;;;17.05;14.03;;;;;;;33.00;22.30;100356.75;1794910;79;21228;-76
2022/06/10 11:14:31;;;;;;;16.32;13.83;;;;;;;33.06;22.15;100348.17;1797154;79;21053;-76
2022/06/10 11:17:17;;;;;;;17.27;14.25;;;;;;;33.07;22.01;100345.58;1815930;77;21080;-75
2022/06/10 11:19:51;;;;;;;15.53;13.93;;;;;;;33.12;21.79;100347.30;1817404;78;21069;-75
2022/06/10 11:22:36;;;;;;;16.17;13.88;;;;;;;33.15;21.85;100345.69;1794530;79;21616;-77
2022/06/10 11:25:15;;;;;;;13.38;11.97;;;;;;;33.13;22.03;100346.69;1817637;77;21666;-74
2022/06/10 11:27:57;;;;;;;13.05;11.48;;;;;;;33.15;22.24;100345.08;1796460;79;20994;-75
2022/06/10 11:30:33;;;;;;;14.65;12.30;;;;;;;33.15;22.24;100343.70;1794991;78;21093;-75
2022/06/10 11:33:07;;;;;;;14.33;12.60;;;;;;;33.14;21.94;100342.14;1819437;77;20990;-75
2022/06/10 11:35:38;;;;;;;14.47;12.25;;;;;;;33.23;22.13;100341.60;1771394;80;21047;-75
2022/06/10 11:38:26;;;;;;;14.47;12.98;;;;;;;33.33;21.87;100342.07;1783559;79;21127;-75
2022/06/10 11:40:56;;;;;;;13.83;12.45;;;;;;;33.43;21.53;100339.54;1799140;79;20959;-76
2022/06/10 11:43:34;;;;;;;13.40;12.00;;;;;;;33.48;21.53;100332.16;1798727;78;41925;-75
2022/06/10 11:46:08;;;;;;;13.80;12.33;;;;;;;33.51;21.57;100331.35;1781903;79;21260;-75
2022/06/10 11:48:46;;;;;;;14.35;12.47;;;;;;;33.56;21.56;100328.09;1790412;78;21035;-75
2022/06/10 11:51:31;;;;;;;13.05;11.50;;;;;;;33.47;21.22;100330.59;1767448;81;21170;-75
2022/06/10 11:54:40;;;;;;;15.75;12.10;;;;;;;33.42;22.05;100322.75;1768246;79;21047;-74
2022/06/10 12:00:23;;;;;;;13.55;10.85;;;;;;;33.58;21.75;100319.55;1768474;79;21057;-74
2022/06/10 12:03:21;;;;;;;12.55;10.32;;;;;;;33.67;20.68;100321.80;1793849;79;21065;-75
2022/06/10 12:06:12;;;;;;;16.32;10.60;;;;;;;33.69;20.61;100321.36;1797460;79;21845;-75
2022/06/10 12:09:14;;;;;;;14.55;11.05;;;;;;;33.72;21.30;100316.36;1798202;79;21680;-76
2022/06/10 12:11:51;;;;;;;11.88;10.38;;;;;;;33.87;21.86;100318.30;1785079;80;21030;-75